sensor_id;sensor_type;location;lat;lon;timestamp;temperature;humidity
37642;DHT22;23486;51.956;5.888;2024-03-29T00:00:42;8.10;99.90
37642;DHT22;23486;51.956;5.888;2024-03-29T00:03:10;8.10;99.90
37642;DHT22;23486;51.956;5.888;2024-03-29T00:05:36;8.10;99.90
37642;DHT22;23486;51.956;5.888;2024-03-29T00:08:05;8.10;99.90
37642;DHT22;23486;51.956;5.888;2024-03-29T00:10:31;8.10;99.90
37642;DHT22;23486;51.956;5.888;2024-03-29T00:12:56;8.00;99.90
37642;DHT22;23486;51.956;5.888;2024-03-29T00:15:22;8.00;99.90
37642;DHT22;23486;51.956;5.888;2024-03-29T00:17:47;8.00;99.90
37642;DHT22;23486;51.956;5.888;2024-03-29T00:20:13;7.90;99.90
37642;DHT22;23486;51.956;5.888;2024-03-29T00:22:38;8.00;99.90
37642;DHT22;23486;51.956;5.888;2024-03-29T00:25:04;8.00;99.90
37642;DHT22;23486;51.956;5.888;2024-03-29T00:27:30;8.00;99.90
37642;DHT22;23486;51.956;5.888;2024-03-29T00:29:55;8.10;99.90
37642;DHT22;23486;51.956;5.888;2024-03-29T00:32:21;8.10;99.90
37642;DHT22;23486;51.956;5.888;2024-03-29T00:34:49;8.10;99.90
37642;DHT22;23486;51.956;5.888;2024-03-29T00:37:14;8.10;99.90
37642;DHT22;23486;51.956;5.888;2024-03-29T00:39:40;8.20;99.90
37642;DHT22;23486;51.956;5.888;2024-03-29T00:42:06;8.20;99.90
37642;DHT22;23486;51.956;5.888;2024-03-29T00:44:34;8.10;99.90
37642;DHT22;23486;51.956;5.888;2024-03-29T00:47:00;8.10;99.90
37642;DHT22;23486;51.956;5.888;2024-03-29T00:49:26;8.10;99.90
37642;DHT22;23486;51.956;5.888;2024-03-29T00:51:51;8.10;99.90
37642;DHT22;23486;51.956;5.888;2024-03-29T00:54:17;8.10;99.90
37642;DHT22;23486;51.956;5.888;2024-03-29T00:56:44;8.10;99.90
37642;DHT22;23486;51.956;5.888;2024-03-29T00:59:09;8.10;99.90
37642;DHT22;23486;51.956;5.888;2024-03-29T01:01:35;8.20;99.90
37642;DHT22;23486;51.956;5.888;2024-03-29T01:04:00;8.20;99.90
37642;DHT22;23486;51.956;5.888;2024-03-29T01:06:25;8.20;99.90
37642;DHT22;23486;51.956;5.888;2024-03-29T01:08:51;8.20;99.90
37642;DHT22;23486;51.956;5.888;2024-03-29T01:11:16;8.20;99.90
37642;DHT22;23486;51.956;5.888;2024-03-29T01:13:42;8.20;99.90
37642;DHT22;23486;51.956;5.888;2024-03-29T01:16:07;8.20;99.90
37642;DHT22;23486;51.956;5.888;2024-03-29T01:18:33;8.20;99.90
37642;DHT22;23486;51.956;5.888;2024-03-29T01:20:59;8.20;99.90
37642;DHT22;23486;51.956;5.888;2024-03-29T01:23:24;8.20;99.90
37642;DHT22;23486;51.956;5.888;2024-03-29T01:25:50;8.10;99.90
37642;DHT22;23486;51.956;5.888;2024-03-29T01:28:15;8.10;99.90
37642;DHT22;23486;51.956;5.888;2024-03-29T01:30:41;8.10;99.90
37642;DHT22;23486;51.956;5.888;2024-03-29T01:33:06;8.10;99.90
37642;DHT22;23486;51.956;5.888;2024-03-29T01:35:32;8.10;99.90
37642;DHT22;23486;51.956;5.888;2024-03-29T01:37:58;8.00;99.90
37642;DHT22;23486;51.956;5.888;2024-03-29T01:40:24;8.00;99.90
37642;DHT22;23486;51.956;5.888;2024-03-29T01:42:52;8.10;99.90
37642;DHT22;23486;51.956;5.888;2024-03-29T01:45:18;8.00;99.90
37642;DHT22;23486;51.956;5.888;2024-03-29T01:47:43;8.00;99.90
37642;DHT22;23486;51.956;5.888;2024-03-29T01:50:09;8.00;99.90
37642;DHT22;23486;51.956;5.888;2024-03-29T01:52:35;8.00;99.90
37642;DHT22;23486;51.956;5.888;2024-03-29T01:55:00;8.00;99.90
37642;DHT22;23486;51.956;5.888;2024-03-29T01:57:26;8.00;99.90
37642;DHT22;23486;51.956;5.888;2024-03-29T01:59:52;8.00;99.90
37642;DHT22;23486;51.956;5.888;2024-03-29T02:02:17;8.00;99.90
37642;DHT22;23486;51.956;5.888;2024-03-29T02:04:44;8.00;99.90
37642;DHT22;23486;51.956;5.888;2024-03-29T02:07:09;8.00;99.90
37642;DHT22;23486;51.956;5.888;2024-03-29T02:09:35;7.90;99.90
37642;DHT22;23486;51.956;5.888;2024-03-29T02:12:00;7.90;99.90
37642;DHT22;23486;51.956;5.888;2024-03-29T02:14:27;7.80;99.90
37642;DHT22;23486;51.956;5.888;2024-03-29T02:16:53;7.80;99.90
37642;DHT22;23486;51.956;5.888;2024-03-29T02:19:18;7.70;99.90
37642;DHT22;23486;51.956;5.888;2024-03-29T02:21:45;7.70;99.90
37642;DHT22;23486;51.956;5.888;2024-03-29T02:24:11;7.70;99.90
37642;DHT22;23486;51.956;5.888;2024-03-29T02:26:40;7.70;99.90
37642;DHT22;23486;51.956;5.888;2024-03-29T02:29:07;7.70;99.90
37642;DHT22;23486;51.956;5.888;2024-03-29T02:31:34;7.80;99.90
37642;DHT22;23486;51.956;5.888;2024-03-29T02:33:59;7.80;99.90
37642;DHT22;23486;51.956;5.888;2024-03-29T02:36:25;7.90;99.90
37642;DHT22;23486;51.956;5.888;2024-03-29T02:38:51;7.90;99.90
37642;DHT22;23486;51.956;5.888;2024-03-29T02:41:18;8.00;99.90
37642;DHT22;23486;51.956;5.888;2024-03-29T02:43:43;8.00;99.90
37642;DHT22;23486;51.956;5.888;2024-03-29T02:46:09;8.00;99.90
37642;DHT22;23486;51.956;5.888;2024-03-29T02:48:34;8.10;99.90
37642;DHT22;23486;51.956;5.888;2024-03-29T02:51:00;8.20;99.90
37642;DHT22;23486;51.956;5.888;2024-03-29T02:53:25;8.20;99.90
37642;DHT22;23486;51.956;5.888;2024-03-29T02:55:51;8.30;99.90
37642;DHT22;23486;51.956;5.888;2024-03-29T02:58:16;8.30;99.90
37642;DHT22;23486;51.956;5.888;2024-03-29T03:00:41;8.40;99.90
37642;DHT22;23486;51.956;5.888;2024-03-29T03:03:07;8.40;99.90
37642;DHT22;23486;51.956;5.888;2024-03-29T03:05:32;8.40;99.90
37642;DHT22;23486;51.956;5.888;2024-03-29T03:07:58;8.50;99.90
37642;DHT22;23486;51.956;5.888;2024-03-29T03:10:45;8.50;99.90
37642;DHT22;23486;51.956;5.888;2024-03-29T03:13:29;8.50;99.90
37642;DHT22;23486;51.956;5.888;2024-03-29T03:15:55;8.50;99.90
37642;DHT22;23486;51.956;5.888;2024-03-29T03:18:20;8.50;99.90
37642;DHT22;23486;51.956;5.888;2024-03-29T03:20:56;8.40;99.90
37642;DHT22;23486;51.956;5.888;2024-03-29T03:23:24;8.40;99.90
37642;DHT22;23486;51.956;5.888;2024-03-29T03:25:53;8.40;99.90
37642;DHT22;23486;51.956;5.888;2024-03-29T03:28:19;8.40;99.90
37642;DHT22;23486;51.956;5.888;2024-03-29T03:30:44;8.40;99.90
37642;DHT22;23486;51.956;5.888;2024-03-29T03:33:10;8.40;99.90
37642;DHT22;23486;51.956;5.888;2024-03-29T03:35:36;8.50;99.90
37642;DHT22;23486;51.956;5.888;2024-03-29T03:38:01;8.50;99.90
37642;DHT22;23486;51.956;5.888;2024-03-29T03:40:27;8.50;99.90
37642;DHT22;23486;51.956;5.888;2024-03-29T03:42:52;8.50;99.90
37642;DHT22;23486;51.956;5.888;2024-03-29T03:45:18;8.50;99.90
37642;DHT22;23486;51.956;5.888;2024-03-29T03:47:43;8.50;99.90
37642;DHT22;23486;51.956;5.888;2024-03-29T03:50:09;8.60;99.90
37642;DHT22;23486;51.956;5.888;2024-03-29T03:52:34;8.60;99.90
37642;DHT22;23486;51.956;5.888;2024-03-29T03:55:00;8.60;99.90
37642;DHT22;23486;51.956;5.888;2024-03-29T03:57:25;8.70;99.90
37642;DHT22;23486;51.956;5.888;2024-03-29T03:59:51;8.60;99.90
37642;DHT22;23486;51.956;5.888;2024-03-29T04:02:16;8.60;99.90
37642;DHT22;23486;51.956;5.888;2024-03-29T04:04:42;8.60;99.90
37642;DHT22;23486;51.956;5.888;2024-03-29T04:07:07;8.60;99.90
37642;DHT22;23486;51.956;5.888;2024-03-29T04:09:33;8.50;99.90
37642;DHT22;23486;51.956;5.888;2024-03-29T04:11:58;8.50;99.90
37642;DHT22;23486;51.956;5.888;2024-03-29T04:14:24;8.50;99.90
37642;DHT22;23486;51.956;5.888;2024-03-29T04:16:49;8.40;99.90
37642;DHT22;23486;51.956;5.888;2024-03-29T04:19:15;8.40;99.90
37642;DHT22;23486;51.956;5.888;2024-03-29T04:21:40;8.40;99.90
37642;DHT22;23486;51.956;5.888;2024-03-29T04:24:05;8.40;99.90
37642;DHT22;23486;51.956;5.888;2024-03-29T04:26:34;8.40;99.90
37642;DHT22;23486;51.956;5.888;2024-03-29T04:28:59;8.30;99.90
37642;DHT22;23486;51.956;5.888;2024-03-29T04:31:25;8.30;99.90
37642;DHT22;23486;51.956;5.888;2024-03-29T04:33:50;8.30;99.90
37642;DHT22;23486;51.956;5.888;2024-03-29T04:36:15;8.30;99.90
37642;DHT22;23486;51.956;5.888;2024-03-29T04:38:41;8.30;99.90
37642;DHT22;23486;51.956;5.888;2024-03-29T04:41:06;8.30;99.90
37642;DHT22;23486;51.956;5.888;2024-03-29T04:43:32;8.30;99.90
37642;DHT22;23486;51.956;5.888;2024-03-29T04:48:38;8.20;99.90
37642;DHT22;23486;51.956;5.888;2024-03-29T04:51:04;8.20;99.90
37642;DHT22;23486;51.956;5.888;2024-03-29T04:53:30;8.20;99.90
37642;DHT22;23486;51.956;5.888;2024-03-29T04:55:56;8.20;99.90
37642;DHT22;23486;51.956;5.888;2024-03-29T04:58:27;8.20;99.90
37642;DHT22;23486;51.956;5.888;2024-03-29T05:00:53;8.20;99.90
37642;DHT22;23486;51.956;5.888;2024-03-29T05:03:19;8.10;99.90
37642;DHT22;23486;51.956;5.888;2024-03-29T05:05:45;8.10;99.90
37642;DHT22;23486;51.956;5.888;2024-03-29T05:08:11;8.10;99.90
37642;DHT22;23486;51.956;5.888;2024-03-29T05:10:36;8.10;99.90
37642;DHT22;23486;51.956;5.888;2024-03-29T05:13:02;8.00;99.90
37642;DHT22;23486;51.956;5.888;2024-03-29T05:15:28;8.00;99.90
37642;DHT22;23486;51.956;5.888;2024-03-29T05:17:54;8.00;99.90
37642;DHT22;23486;51.956;5.888;2024-03-29T05:20:19;8.00;99.90
37642;DHT22;23486;51.956;5.888;2024-03-29T05:22:45;8.00;99.90
37642;DHT22;23486;51.956;5.888;2024-03-29T05:25:10;7.90;99.90
37642;DHT22;23486;51.956;5.888;2024-03-29T05:27:36;7.90;99.90
37642;DHT22;23486;51.956;5.888;2024-03-29T05:30:02;7.90;99.90
37642;DHT22;23486;51.956;5.888;2024-03-29T05:32:29;7.90;99.90
37642;DHT22;23486;51.956;5.888;2024-03-29T05:34:54;7.90;99.90
37642;DHT22;23486;51.956;5.888;2024-03-29T05:37:20;7.90;99.90
37642;DHT22;23486;51.956;5.888;2024-03-29T05:39:45;7.90;99.90
37642;DHT22;23486;51.956;5.888;2024-03-29T05:42:12;7.80;99.90
37642;DHT22;23486;51.956;5.888;2024-03-29T05:44:38;7.80;99.90
37642;DHT22;23486;51.956;5.888;2024-03-29T05:47:03;7.80;99.90
37642;DHT22;23486;51.956;5.888;2024-03-29T05:49:30;7.80;99.90
37642;DHT22;23486;51.956;5.888;2024-03-29T05:51:56;7.90;99.90
37642;DHT22;23486;51.956;5.888;2024-03-29T05:54:21;7.90;99.90
37642;DHT22;23486;51.956;5.888;2024-03-29T05:56:48;7.90;99.90
37642;DHT22;23486;51.956;5.888;2024-03-29T05:59:13;7.80;99.90
37642;DHT22;23486;51.956;5.888;2024-03-29T06:01:40;7.80;99.90
37642;DHT22;23486;51.956;5.888;2024-03-29T06:04:06;7.90;99.90
37642;DHT22;23486;51.956;5.888;2024-03-29T06:06:39;7.90;99.90
37642;DHT22;23486;51.956;5.888;2024-03-29T06:09:04;7.90;99.90
37642;DHT22;23486;51.956;5.888;2024-03-29T06:11:30;8.00;99.90
37642;DHT22;23486;51.956;5.888;2024-03-29T06:13:56;7.90;99.90
37642;DHT22;23486;51.956;5.888;2024-03-29T06:16:24;7.90;99.90
37642;DHT22;23486;51.956;5.888;2024-03-29T06:19:08;7.90;99.90
37642;DHT22;23486;51.956;5.888;2024-03-29T06:21:33;7.90;99.90
37642;DHT22;23486;51.956;5.888;2024-03-29T06:24:07;7.90;99.90
37642;DHT22;23486;51.956;5.888;2024-03-29T06:26:33;7.90;99.90
37642;DHT22;23486;51.956;5.888;2024-03-29T06:29:02;7.90;99.90
37642;DHT22;23486;51.956;5.888;2024-03-29T06:31:28;8.00;99.90
37642;DHT22;23486;51.956;5.888;2024-03-29T06:33:54;8.00;99.90
37642;DHT22;23486;51.956;5.888;2024-03-29T06:36:21;8.00;99.90
37642;DHT22;23486;51.956;5.888;2024-03-29T06:38:47;8.00;99.90
37642;DHT22;23486;51.956;5.888;2024-03-29T06:41:12;8.00;99.90
37642;DHT22;23486;51.956;5.888;2024-03-29T06:43:40;8.00;99.90
37642;DHT22;23486;51.956;5.888;2024-03-29T06:46:06;8.00;99.90
37642;DHT22;23486;51.956;5.888;2024-03-29T06:48:31;8.00;99.90
37642;DHT22;23486;51.956;5.888;2024-03-29T06:50:57;8.00;99.90
37642;DHT22;23486;51.956;5.888;2024-03-29T06:53:23;8.00;99.90
37642;DHT22;23486;51.956;5.888;2024-03-29T06:55:49;8.00;99.90
37642;DHT22;23486;51.956;5.888;2024-03-29T06:58:15;8.00;99.90
37642;DHT22;23486;51.956;5.888;2024-03-29T07:00:41;8.00;99.90
37642;DHT22;23486;51.956;5.888;2024-03-29T07:03:07;8.10;99.90
37642;DHT22;23486;51.956;5.888;2024-03-29T07:05:32;8.00;99.90
37642;DHT22;23486;51.956;5.888;2024-03-29T07:07:57;8.10;99.90
37642;DHT22;23486;51.956;5.888;2024-03-29T07:10:25;8.00;99.90
37642;DHT22;23486;51.956;5.888;2024-03-29T07:12:50;8.00;99.90
37642;DHT22;23486;51.956;5.888;2024-03-29T07:15:16;8.10;99.90
37642;DHT22;23486;51.956;5.888;2024-03-29T07:17:41;8.10;99.90
37642;DHT22;23486;51.956;5.888;2024-03-29T07:20:08;8.10;99.90
37642;DHT22;23486;51.956;5.888;2024-03-29T07:22:34;8.10;99.90
37642;DHT22;23486;51.956;5.888;2024-03-29T07:24:59;8.10;99.90
37642;DHT22;23486;51.956;5.888;2024-03-29T07:27:25;8.20;99.90
37642;DHT22;23486;51.956;5.888;2024-03-29T07:29:52;8.20;99.90
37642;DHT22;23486;51.956;5.888;2024-03-29T07:32:17;8.20;99.90
37642;DHT22;23486;51.956;5.888;2024-03-29T07:34:43;8.30;99.90
37642;DHT22;23486;51.956;5.888;2024-03-29T07:37:09;8.30;99.90
37642;DHT22;23486;51.956;5.888;2024-03-29T07:39:40;8.40;99.90
37642;DHT22;23486;51.956;5.888;2024-03-29T07:42:05;8.40;99.90
37642;DHT22;23486;51.956;5.888;2024-03-29T07:44:31;8.50;99.90
37642;DHT22;23486;51.956;5.888;2024-03-29T07:46:56;8.50;99.90
37642;DHT22;23486;51.956;5.888;2024-03-29T07:49:22;8.60;99.90
37642;DHT22;23486;51.956;5.888;2024-03-29T07:51:47;8.60;99.90
37642;DHT22;23486;51.956;5.888;2024-03-29T07:54:13;8.60;99.90
37642;DHT22;23486;51.956;5.888;2024-03-29T07:56:39;8.60;99.90
37642;DHT22;23486;51.956;5.888;2024-03-29T07:59:04;8.50;99.90
37642;DHT22;23486;51.956;5.888;2024-03-29T08:01:30;8.50;99.90
37642;DHT22;23486;51.956;5.888;2024-03-29T08:03:55;8.50;99.90
37642;DHT22;23486;51.956;5.888;2024-03-29T08:06:21;8.50;99.90
37642;DHT22;23486;51.956;5.888;2024-03-29T08:08:49;8.50;99.90
37642;DHT22;23486;51.956;5.888;2024-03-29T08:11:14;8.50;99.90
37642;DHT22;23486;51.956;5.888;2024-03-29T08:13:43;8.50;99.90
37642;DHT22;23486;51.956;5.888;2024-03-29T08:16:08;8.60;99.90
37642;DHT22;23486;51.956;5.888;2024-03-29T08:18:34;8.50;99.90
37642;DHT22;23486;51.956;5.888;2024-03-29T08:21:00;8.60;99.90
37642;DHT22;23486;51.956;5.888;2024-03-29T08:23:25;8.60;99.90
37642;DHT22;23486;51.956;5.888;2024-03-29T08:25:51;8.60;99.90
37642;DHT22;23486;51.956;5.888;2024-03-29T08:28:17;8.60;99.90
37642;DHT22;23486;51.956;5.888;2024-03-29T08:30:43;8.60;99.90
37642;DHT22;23486;51.956;5.888;2024-03-29T08:33:08;8.60;99.90
37642;DHT22;23486;51.956;5.888;2024-03-29T08:35:34;8.60;99.90
37642;DHT22;23486;51.956;5.888;2024-03-29T08:38:00;8.70;99.90
37642;DHT22;23486;51.956;5.888;2024-03-29T08:40:26;8.70;99.90
37642;DHT22;23486;51.956;5.888;2024-03-29T08:42:54;8.80;99.90
37642;DHT22;23486;51.956;5.888;2024-03-29T08:45:19;8.90;99.90
37642;DHT22;23486;51.956;5.888;2024-03-29T08:47:46;8.90;99.90
37642;DHT22;23486;51.956;5.888;2024-03-29T08:50:11;9.00;99.90
37642;DHT22;23486;51.956;5.888;2024-03-29T08:52:38;9.10;99.90
37642;DHT22;23486;51.956;5.888;2024-03-29T08:55:04;9.20;99.90
37642;DHT22;23486;51.956;5.888;2024-03-29T08:57:30;9.20;99.90
37642;DHT22;23486;51.956;5.888;2024-03-29T08:59:56;9.40;99.90
37642;DHT22;23486;51.956;5.888;2024-03-29T09:02:21;9.50;99.90
37642;DHT22;23486;51.956;5.888;2024-03-29T09:04:47;9.70;99.90
37642;DHT22;23486;51.956;5.888;2024-03-29T09:07:12;9.80;99.90
37642;DHT22;23486;51.956;5.888;2024-03-29T09:09:38;9.80;99.90
37642;DHT22;23486;51.956;5.888;2024-03-29T09:12:07;9.90;99.90
37642;DHT22;23486;51.956;5.888;2024-03-29T09:14:33;10.00;99.90
37642;DHT22;23486;51.956;5.888;2024-03-29T09:16:58;10.00;99.90
37642;DHT22;23486;51.956;5.888;2024-03-29T09:19:24;10.10;99.90
37642;DHT22;23486;51.956;5.888;2024-03-29T09:21:50;10.20;99.90
37642;DHT22;23486;51.956;5.888;2024-03-29T09:24:15;10.20;99.90
37642;DHT22;23486;51.956;5.888;2024-03-29T09:26:45;10.30;99.90
37642;DHT22;23486;51.956;5.888;2024-03-29T09:29:11;10.30;99.90
37642;DHT22;23486;51.956;5.888;2024-03-29T09:31:38;10.40;99.90
37642;DHT22;23486;51.956;5.888;2024-03-29T09:34:03;10.40;99.90
37642;DHT22;23486;51.956;5.888;2024-03-29T09:36:29;10.40;99.90
37642;DHT22;23486;51.956;5.888;2024-03-29T09:38:54;10.40;99.90
37642;DHT22;23486;51.956;5.888;2024-03-29T09:41:20;10.50;99.90
37642;DHT22;23486;51.956;5.888;2024-03-29T09:43:47;10.50;99.90
37642;DHT22;23486;51.956;5.888;2024-03-29T09:46:13;10.50;99.90
37642;DHT22;23486;51.956;5.888;2024-03-29T09:48:39;10.70;99.90
37642;DHT22;23486;51.956;5.888;2024-03-29T09:51:05;10.80;99.90
37642;DHT22;23486;51.956;5.888;2024-03-29T09:53:35;11.00;99.90
37642;DHT22;23486;51.956;5.888;2024-03-29T09:56:04;11.20;99.90
37642;DHT22;23486;51.956;5.888;2024-03-29T09:58:31;11.40;99.90
37642;DHT22;23486;51.956;5.888;2024-03-29T10:00:57;11.50;99.90
37642;DHT22;23486;51.956;5.888;2024-03-29T10:03:25;11.50;99.90
37642;DHT22;23486;51.956;5.888;2024-03-29T10:05:58;11.60;99.90
37642;DHT22;23486;51.956;5.888;2024-03-29T10:08:27;11.70;99.90
37642;DHT22;23486;51.956;5.888;2024-03-29T10:10:55;11.70;99.90
37642;DHT22;23486;51.956;5.888;2024-03-29T10:13:20;11.80;99.90
37642;DHT22;23486;51.956;5.888;2024-03-29T10:15:46;11.90;99.90
37642;DHT22;23486;51.956;5.888;2024-03-29T10:18:15;12.00;99.90
37642;DHT22;23486;51.956;5.888;2024-03-29T10:20:40;12.00;99.90
37642;DHT22;23486;51.956;5.888;2024-03-29T10:23:06;12.10;99.90
37642;DHT22;23486;51.956;5.888;2024-03-29T10:25:33;12.20;99.90
37642;DHT22;23486;51.956;5.888;2024-03-29T10:28:01;12.30;99.90
37642;DHT22;23486;51.956;5.888;2024-03-29T10:30:29;12.20;99.90
37642;DHT22;23486;51.956;5.888;2024-03-29T10:32:55;12.10;99.90
37642;DHT22;23486;51.956;5.888;2024-03-29T10:35:21;12.10;99.90
37642;DHT22;23486;51.956;5.888;2024-03-29T10:37:46;12.10;99.90
37642;DHT22;23486;51.956;5.888;2024-03-29T10:40:11;12.10;99.90
37642;DHT22;23486;51.956;5.888;2024-03-29T10:42:41;12.20;99.90
37642;DHT22;23486;51.956;5.888;2024-03-29T10:45:07;12.20;99.90
37642;DHT22;23486;51.956;5.888;2024-03-29T10:47:33;12.40;99.90
37642;DHT22;23486;51.956;5.888;2024-03-29T10:49:58;12.50;99.90
37642;DHT22;23486;51.956;5.888;2024-03-29T10:52:27;12.60;99.90
37642;DHT22;23486;51.956;5.888;2024-03-29T10:54:53;12.50;99.90
37642;DHT22;23486;51.956;5.888;2024-03-29T11:04:54;12.80;99.90
37642;DHT22;23486;51.956;5.888;2024-03-29T11:07:21;12.90;99.90
37642;DHT22;23486;51.956;5.888;2024-03-29T11:09:48;13.00;99.90
37642;DHT22;23486;51.956;5.888;2024-03-29T11:12:15;13.10;99.90
37642;DHT22;23486;51.956;5.888;2024-03-29T11:14:45;13.20;99.90
37642;DHT22;23486;51.956;5.888;2024-03-29T11:17:11;13.30;99.90
37642;DHT22;23486;51.956;5.888;2024-03-29T11:19:39;13.30;99.90
37642;DHT22;23486;51.956;5.888;2024-03-29T11:22:05;13.40;99.90
37642;DHT22;23486;51.956;5.888;2024-03-29T11:24:31;13.40;99.90
37642;DHT22;23486;51.956;5.888;2024-03-29T11:26:57;13.60;99.90
37642;DHT22;23486;51.956;5.888;2024-03-29T11:29:22;13.60;99.90
37642;DHT22;23486;51.956;5.888;2024-03-29T11:31:57;13.60;99.90
37642;DHT22;23486;51.956;5.888;2024-03-29T11:34:24;13.60;99.90
37642;DHT22;23486;51.956;5.888;2024-03-29T11:36:49;13.60;99.90
37642;DHT22;23486;51.956;5.888;2024-03-29T11:39:21;13.60;99.90
37642;DHT22;23486;51.956;5.888;2024-03-29T11:41:47;13.80;99.90
37642;DHT22;23486;51.956;5.888;2024-03-29T11:44:13;14.00;99.90
37642;DHT22;23486;51.956;5.888;2024-03-29T11:46:39;14.00;99.90
37642;DHT22;23486;51.956;5.888;2024-03-29T11:49:05;14.00;99.90
37642;DHT22;23486;51.956;5.888;2024-03-29T11:51:31;14.10;99.90
37642;DHT22;23486;51.956;5.888;2024-03-29T11:53:57;14.10;99.90
37642;DHT22;23486;51.956;5.888;2024-03-29T11:56:22;14.10;99.90
37642;DHT22;23486;51.956;5.888;2024-03-29T11:58:48;14.20;99.90
37642;DHT22;23486;51.956;5.888;2024-03-29T12:01:14;14.40;99.90
37642;DHT22;23486;51.956;5.888;2024-03-29T12:03:42;14.50;99.90
37642;DHT22;23486;51.956;5.888;2024-03-29T12:06:08;14.70;99.90
37642;DHT22;23486;51.956;5.888;2024-03-29T12:08:34;14.70;99.90
37642;DHT22;23486;51.956;5.888;2024-03-29T12:11:00;14.80;99.90
37642;DHT22;23486;51.956;5.888;2024-03-29T12:13:26;14.80;99.90
37642;DHT22;23486;51.956;5.888;2024-03-29T12:15:52;14.70;99.90
37642;DHT22;23486;51.956;5.888;2024-03-29T12:18:19;14.70;99.90
37642;DHT22;23486;51.956;5.888;2024-03-29T12:20:45;14.80;99.90
37642;DHT22;23486;51.956;5.888;2024-03-29T12:23:15;14.80;99.90
37642;DHT22;23486;51.956;5.888;2024-03-29T12:25:41;14.90;99.90
37642;DHT22;23486;51.956;5.888;2024-03-29T12:28:06;14.90;99.90
37642;DHT22;23486;51.956;5.888;2024-03-29T12:30:32;15.00;99.90
37642;DHT22;23486;51.956;5.888;2024-03-29T12:33:05;15.00;99.90
37642;DHT22;23486;51.956;5.888;2024-03-29T12:35:43;15.10;99.90
37642;DHT22;23486;51.956;5.888;2024-03-29T12:38:10;15.20;99.90
37642;DHT22;23486;51.956;5.888;2024-03-29T12:40:37;15.20;99.90
37642;DHT22;23486;51.956;5.888;2024-03-29T12:43:05;15.20;99.90
37642;DHT22;23486;51.956;5.888;2024-03-29T12:45:31;15.30;99.90
37642;DHT22;23486;51.956;5.888;2024-03-29T12:47:57;15.40;99.90
37642;DHT22;23486;51.956;5.888;2024-03-29T12:52:48;15.30;99.90
37642;DHT22;23486;51.956;5.888;2024-03-29T12:55:13;15.30;99.90
37642;DHT22;23486;51.956;5.888;2024-03-29T12:57:43;15.30;99.90
37642;DHT22;23486;51.956;5.888;2024-03-29T13:00:09;15.50;99.90
37642;DHT22;23486;51.956;5.888;2024-03-29T13:02:35;15.70;99.90
37642;DHT22;23486;51.956;5.888;2024-03-29T13:05:01;15.70;99.90
37642;DHT22;23486;51.956;5.888;2024-03-29T13:07:27;15.80;99.90
37642;DHT22;23486;51.956;5.888;2024-03-29T13:09:52;15.90;99.90
37642;DHT22;23486;51.956;5.888;2024-03-29T13:12:18;16.00;99.90
37642;DHT22;23486;51.956;5.888;2024-03-29T13:14:44;16.00;99.90
37642;DHT22;23486;51.956;5.888;2024-03-29T13:17:09;16.10;99.90
37642;DHT22;23486;51.956;5.888;2024-03-29T13:19:35;16.20;99.90
37642;DHT22;23486;51.956;5.888;2024-03-29T13:22:01;16.30;99.90
37642;DHT22;23486;51.956;5.888;2024-03-29T13:24:26;16.30;99.90
37642;DHT22;23486;51.956;5.888;2024-03-29T13:26:54;16.20;99.90
37642;DHT22;23486;51.956;5.888;2024-03-29T13:29:19;16.40;99.90
37642;DHT22;23486;51.956;5.888;2024-03-29T13:31:45;16.50;99.90
37642;DHT22;23486;51.956;5.888;2024-03-29T13:34:11;16.60;99.90
37642;DHT22;23486;51.956;5.888;2024-03-29T13:36:39;16.70;99.90
37642;DHT22;23486;51.956;5.888;2024-03-29T13:39:05;16.60;99.90
37642;DHT22;23486;51.956;5.888;2024-03-29T13:41:33;16.60;99.90
37642;DHT22;23486;51.956;5.888;2024-03-29T13:43:58;16.60;99.90
37642;DHT22;23486;51.956;5.888;2024-03-29T13:46:25;16.60;99.90
37642;DHT22;23486;51.956;5.888;2024-03-29T13:48:50;16.70;99.90
37642;DHT22;23486;51.956;5.888;2024-03-29T13:51:16;16.60;99.90
37642;DHT22;23486;51.956;5.888;2024-03-29T13:53:41;16.70;99.90
37642;DHT22;23486;51.956;5.888;2024-03-29T13:56:07;16.80;99.90
37642;DHT22;23486;51.956;5.888;2024-03-29T13:58:32;16.80;99.90
37642;DHT22;23486;51.956;5.888;2024-03-29T14:00:59;16.80;99.90
37642;DHT22;23486;51.956;5.888;2024-03-29T14:03:25;16.60;99.90
37642;DHT22;23486;51.956;5.888;2024-03-29T14:05:50;16.60;99.90
37642;DHT22;23486;51.956;5.888;2024-03-29T14:08:16;16.70;99.90
37642;DHT22;23486;51.956;5.888;2024-03-29T14:10:41;16.80;99.90
37642;DHT22;23486;51.956;5.888;2024-03-29T14:13:08;16.80;99.90
37642;DHT22;23486;51.956;5.888;2024-03-29T14:15:34;16.80;99.90
37642;DHT22;23486;51.956;5.888;2024-03-29T14:18:00;16.80;99.90
37642;DHT22;23486;51.956;5.888;2024-03-29T14:20:25;16.80;99.90
37642;DHT22;23486;51.956;5.888;2024-03-29T14:22:51;16.80;99.90
37642;DHT22;23486;51.956;5.888;2024-03-29T14:25:20;16.80;98.30
37642;DHT22;23486;51.956;5.888;2024-03-29T14:27:46;16.70;98.50
37642;DHT22;23486;51.956;5.888;2024-03-29T14:30:22;16.60;99.30
37642;DHT22;23486;51.956;5.888;2024-03-29T14:32:50;16.60;99.30
37642;DHT22;23486;51.956;5.888;2024-03-29T14:35:15;16.60;99.90
37642;DHT22;23486;51.956;5.888;2024-03-29T14:37:45;16.60;99.90
37642;DHT22;23486;51.956;5.888;2024-03-29T14:40:11;16.70;99.00
37642;DHT22;23486;51.956;5.888;2024-03-29T14:42:38;16.60;98.80
37642;DHT22;23486;51.956;5.888;2024-03-29T14:45:04;16.60;99.50
37642;DHT22;23486;51.956;5.888;2024-03-29T14:47:30;16.70;99.90
37642;DHT22;23486;51.956;5.888;2024-03-29T14:49:55;16.70;98.60
37642;DHT22;23486;51.956;5.888;2024-03-29T14:52:21;16.70;99.90
37642;DHT22;23486;51.956;5.888;2024-03-29T14:54:46;16.60;99.10
37642;DHT22;23486;51.956;5.888;2024-03-29T14:57:12;16.70;99.90
37642;DHT22;23486;51.956;5.888;2024-03-29T14:59:37;16.70;98.70
37642;DHT22;23486;51.956;5.888;2024-03-29T15:02:03;16.80;98.80
37642;DHT22;23486;51.956;5.888;2024-03-29T15:04:29;16.90;99.50
37642;DHT22;23486;51.956;5.888;2024-03-29T15:06:54;17.00;99.90
37642;DHT22;23486;51.956;5.888;2024-03-29T15:09:20;17.10;99.90
37642;DHT22;23486;51.956;5.888;2024-03-29T15:11:45;17.30;99.90
37642;DHT22;23486;51.956;5.888;2024-03-29T15:14:11;17.40;99.90
37642;DHT22;23486;51.956;5.888;2024-03-29T15:16:36;17.60;99.90
37642;DHT22;23486;51.956;5.888;2024-03-29T15:19:02;17.60;99.80
37642;DHT22;23486;51.956;5.888;2024-03-29T15:21:28;17.60;98.80
37642;DHT22;23486;51.956;5.888;2024-03-29T15:23:54;17.70;99.40
37642;DHT22;23486;51.956;5.888;2024-03-29T15:26:19;17.80;99.60
37642;DHT22;23486;51.956;5.888;2024-03-29T15:28:45;17.90;99.30
37642;DHT22;23486;51.956;5.888;2024-03-29T15:31:29;17.90;99.80
37642;DHT22;23486;51.956;5.888;2024-03-29T15:33:55;17.90;99.90
37642;DHT22;23486;51.956;5.888;2024-03-29T15:36:20;17.80;99.90
37642;DHT22;23486;51.956;5.888;2024-03-29T15:38:49;17.60;99.90
37642;DHT22;23486;51.956;5.888;2024-03-29T15:41:16;17.50;99.90
37642;DHT22;23486;51.956;5.888;2024-03-29T15:43:41;17.30;99.90
37642;DHT22;23486;51.956;5.888;2024-03-29T15:46:07;17.20;99.90